sensor_id;sensor_type;location;lat;lon;timestamp;P1;durP1;ratioP1;P2;durP2;ratioP2
45356;SDS011;31092;51.924;21.448;2023-09-30T00:02:10;23.67;;;21.85;;
45356;SDS011;31092;51.924;21.448;2023-09-30T00:04:44;24.95;;;22.95;;
45356;SDS011;31092;51.924;21.448;2023-09-30T00:07:10;24.00;;;22.23;;
45356;SDS011;31092;51.924;21.448;2023-09-30T00:09:36;23.42;;;21.63;;
45356;SDS011;31092;51.924;21.448;2023-09-30T00:12:02;24.40;;;22.17;;
45356;SDS011;31092;51.924;21.448;2023-09-30T00:14:28;24.40;;;22.30;;
45356;SDS011;31092;51.924;21.448;2023-09-30T00:16:54;23.95;;;22.13;;
45356;SDS011;31092;51.924;21.448;2023-09-30T00:19:20;23.95;;;22.13;;
45356;SDS011;31092;51.924;21.448;2023-09-30T00:21:48;23.88;;;22.20;;
45356;SDS011;31092;51.924;21.448;2023-09-30T00:24:16;23.52;;;21.67;;
45356;SDS011;31092;51.924;21.448;2023-09-30T00:26:42;23.80;;;21.65;;
45356;SDS011;31092;51.924;21.448;2023-09-30T00:29:07;23.70;;;21.80;;
45356;SDS011;31092;51.924;21.448;2023-09-30T00:31:33;24.15;;;22.05;;
45356;SDS011;31092;51.924;21.448;2023-09-30T00:33:59;22.33;;;20.80;;
45356;SDS011;31092;51.924;21.448;2023-09-30T00:36:24;24.52;;;22.60;;
45356;SDS011;31092;51.924;21.448;2023-09-30T00:38:51;23.20;;;21.60;;
45356;SDS011;31092;51.924;21.448;2023-09-30T00:41:17;23.33;;;21.50;;
45356;SDS011;31092;51.924;21.448;2023-09-30T00:43:44;23.50;;;21.73;;
45356;SDS011;31092;51.924;21.448;2023-09-30T00:46:28;23.23;;;21.30;;
45356;SDS011;31092;51.924;21.448;2023-09-30T00:48:57;23.83;;;21.95;;
45356;SDS011;31092;51.924;21.448;2023-09-30T00:51:29;24.58;;;22.23;;
45356;SDS011;31092;51.924;21.448;2023-09-30T00:53:57;24.52;;;22.48;;
45356;SDS011;31092;51.924;21.448;2023-09-30T00:56:25;23.45;;;21.60;;
45356;SDS011;31092;51.924;21.448;2023-09-30T00:58:52;23.17;;;21.45;;
45356;SDS011;31092;51.924;21.448;2023-09-30T01:01:19;24.38;;;22.60;;
45356;SDS011;31092;51.924;21.448;2023-09-30T01:03:45;22.15;;;20.42;;
45356;SDS011;31092;51.924;21.448;2023-09-30T01:06:11;23.08;;;21.25;;
45356;SDS011;31092;51.924;21.448;2023-09-30T01:08:38;22.27;;;20.67;;
45356;SDS011;31092;51.924;21.448;2023-09-30T01:11:04;24.77;;;22.58;;
45356;SDS011;31092;51.924;21.448;2023-09-30T01:13:34;23.42;;;21.73;;
45356;SDS011;31092;51.924;21.448;2023-09-30T01:16:03;22.73;;;21.13;;
45356;SDS011;31092;51.924;21.448;2023-09-30T01:18:34;23.10;;;21.30;;
45356;SDS011;31092;51.924;21.448;2023-09-30T01:21:01;23.38;;;21.48;;
45356;SDS011;31092;51.924;21.448;2023-09-30T01:23:29;23.33;;;21.48;;
45356;SDS011;31092;51.924;21.448;2023-09-30T01:25:55;23.02;;;21.33;;
45356;SDS011;31092;51.924;21.448;2023-09-30T01:28:21;23.48;;;21.80;;
45356;SDS011;31092;51.924;21.448;2023-09-30T01:30:48;23.65;;;21.85;;
45356;SDS011;31092;51.924;21.448;2023-09-30T01:33:14;23.08;;;21.40;;
45356;SDS011;31092;51.924;21.448;2023-09-30T01:35:44;24.05;;;22.35;;
45356;SDS011;31092;51.924;21.448;2023-09-30T01:38:10;22.85;;;21.25;;
45356;SDS011;31092;51.924;21.448;2023-09-30T01:40:35;22.67;;;21.08;;
45356;SDS011;31092;51.924;21.448;2023-09-30T01:43:02;23.17;;;21.38;;
45356;SDS011;31092;51.924;21.448;2023-09-30T01:45:28;23.48;;;21.40;;
45356;SDS011;31092;51.924;21.448;2023-09-30T01:47:54;23.00;;;21.38;;
45356;SDS011;31092;51.924;21.448;2023-09-30T01:50:20;22.75;;;21.08;;
45356;SDS011;31092;51.924;21.448;2023-09-30T01:52:45;24.92;;;23.02;;
45356;SDS011;31092;51.924;21.448;2023-09-30T01:55:11;23.90;;;22.10;;
45356;SDS011;31092;51.924;21.448;2023-09-30T01:57:37;23.67;;;21.75;;
45356;SDS011;31092;51.924;21.448;2023-09-30T02:00:03;23.77;;;21.98;;
45356;SDS011;31092;51.924;21.448;2023-09-30T02:02:30;23.77;;;22.10;;
45356;SDS011;31092;51.924;21.448;2023-09-30T02:04:56;23.98;;;21.77;;
45356;SDS011;31092;51.924;21.448;2023-09-30T02:07:24;23.23;;;21.42;;
45356;SDS011;31092;51.924;21.448;2023-09-30T02:09:50;24.02;;;22.23;;
45356;SDS011;31092;51.924;21.448;2023-09-30T02:12:15;23.40;;;21.73;;
45356;SDS011;31092;51.924;21.448;2023-09-30T02:14:50;23.75;;;22.00;;
45356;SDS011;31092;51.924;21.448;2023-09-30T02:17:16;22.80;;;21.30;;
45356;SDS011;31092;51.924;21.448;2023-09-30T02:19:42;23.92;;;22.15;;
45356;SDS011;31092;51.924;21.448;2023-09-30T02:22:08;22.92;;;21.13;;
45356;SDS011;31092;51.924;21.448;2023-09-30T02:24:34;23.48;;;21.85;;
45356;SDS011;31092;51.924;21.448;2023-09-30T02:27:03;22.15;;;20.55;;
45356;SDS011;31092;51.924;21.448;2023-09-30T02:29:28;23.10;;;21.40;;
45356;SDS011;31092;51.924;21.448;2023-09-30T02:31:54;22.63;;;20.63;;
45356;SDS011;31092;51.924;21.448;2023-09-30T02:34:20;22.73;;;21.00;;
45356;SDS011;31092;51.924;21.448;2023-09-30T02:36:45;22.52;;;21.02;;
45356;SDS011;31092;51.924;21.448;2023-09-30T02:39:11;22.25;;;20.83;;
45356;SDS011;31092;51.924;21.448;2023-09-30T02:41:36;22.38;;;20.85;;
45356;SDS011;31092;51.924;21.448;2023-09-30T02:44:03;23.15;;;21.30;;
45356;SDS011;31092;51.924;21.448;2023-09-30T02:46:29;23.50;;;21.65;;
45356;SDS011;31092;51.924;21.448;2023-09-30T02:48:54;22.38;;;20.88;;
45356;SDS011;31092;51.924;21.448;2023-09-30T02:51:20;21.60;;;20.23;;
45356;SDS011;31092;51.924;21.448;2023-09-30T02:53:46;24.67;;;22.55;;
45356;SDS011;31092;51.924;21.448;2023-09-30T02:56:13;22.55;;;20.95;;
45356;SDS011;31092;51.924;21.448;2023-09-30T02:58:39;25.02;;;23.20;;
45356;SDS011;31092;51.924;21.448;2023-09-30T03:01:05;23.20;;;21.42;;
45356;SDS011;31092;51.924;21.448;2023-09-30T03:03:32;22.83;;;20.90;;
45356;SDS011;31092;51.924;21.448;2023-09-30T03:05:58;23.38;;;21.77;;
45356;SDS011;31092;51.924;21.448;2023-09-30T03:08:25;23.33;;;21.42;;
45356;SDS011;31092;51.924;21.448;2023-09-30T03:10:52;23.35;;;21.80;;
45356;SDS011;31092;51.924;21.448;2023-09-30T03:13:18;23.33;;;21.23;;
45356;SDS011;31092;51.924;21.448;2023-09-30T03:15:46;22.45;;;20.90;;
45356;SDS011;31092;51.924;21.448;2023-09-30T03:18:15;24.80;;;22.85;;
45356;SDS011;31092;51.924;21.448;2023-09-30T03:20:42;23.20;;;21.58;;
45356;SDS011;31092;51.924;21.448;2023-09-30T03:23:08;23.35;;;21.80;;
45356;SDS011;31092;51.924;21.448;2023-09-30T03:25:35;25.77;;;23.80;;
45356;SDS011;31092;51.924;21.448;2023-09-30T03:28:01;29.20;;;26.67;;
45356;SDS011;31092;51.924;21.448;2023-09-30T03:30:27;27.83;;;25.65;;
45356;SDS011;31092;51.924;21.448;2023-09-30T03:32:52;27.23;;;24.98;;
45356;SDS011;31092;51.924;21.448;2023-09-30T03:35:32;25.77;;;23.55;;
45356;SDS011;31092;51.924;21.448;2023-09-30T03:37:58;23.17;;;21.48;;
45356;SDS011;31092;51.924;21.448;2023-09-30T03:40:24;24.83;;;22.65;;
45356;SDS011;31092;51.924;21.448;2023-09-30T03:43:13;23.38;;;21.67;;
45356;SDS011;31092;51.924;21.448;2023-09-30T03:45:39;24.08;;;22.17;;
45356;SDS011;31092;51.924;21.448;2023-09-30T03:48:06;23.83;;;21.83;;
45356;SDS011;31092;51.924;21.448;2023-09-30T03:50:32;24.55;;;22.95;;
45356;SDS011;31092;51.924;21.448;2023-09-30T03:53:03;23.20;;;21.55;;
45356;SDS011;31092;51.924;21.448;2023-09-30T03:55:30;24.17;;;22.48;;
45356;SDS011;31092;51.924;21.448;2023-09-30T03:58:05;26.95;;;24.65;;
45356;SDS011;31092;51.924;21.448;2023-09-30T04:00:31;23.67;;;21.90;;
45356;SDS011;31092;51.924;21.448;2023-09-30T04:02:56;27.02;;;24.83;;
45356;SDS011;31092;51.924;21.448;2023-09-30T04:05:26;25.08;;;23.13;;
45356;SDS011;31092;51.924;21.448;2023-09-30T04:07:54;24.23;;;22.48;;
45356;SDS011;31092;51.924;21.448;2023-09-30T04:10:23;25.38;;;23.35;;
45356;SDS011;31092;51.924;21.448;2023-09-30T04:12:50;23.83;;;22.02;;
45356;SDS011;31092;51.924;21.448;2023-09-30T04:15:17;22.88;;;21.27;;
45356;SDS011;31092;51.924;21.448;2023-09-30T04:17:43;23.42;;;21.85;;
45356;SDS011;31092;51.924;21.448;2023-09-30T04:20:09;23.40;;;21.75;;
45356;SDS011;31092;51.924;21.448;2023-09-30T04:22:41;22.52;;;20.70;;
45356;SDS011;31092;51.924;21.448;2023-09-30T04:25:07;22.30;;;20.60;;
45356;SDS011;31092;51.924;21.448;2023-09-30T04:27:36;24.15;;;22.45;;
45356;SDS011;31092;51.924;21.448;2023-09-30T04:30:02;23.73;;;21.98;;
45356;SDS011;31092;51.924;21.448;2023-09-30T04:32:34;23.17;;;21.42;;
45356;SDS011;31092;51.924;21.448;2023-09-30T04:35:04;21.73;;;20.30;;
45356;SDS011;31092;51.924;21.448;2023-09-30T04:37:29;22.20;;;20.63;;
45356;SDS011;31092;51.924;21.448;2023-09-30T04:39:55;23.98;;;21.95;;
45356;SDS011;31092;51.924;21.448;2023-09-30T04:42:21;23.20;;;21.38;;
45356;SDS011;31092;51.924;21.448;2023-09-30T04:44:57;21.88;;;20.45;;
45356;SDS011;31092;51.924;21.448;2023-09-30T04:47:25;24.08;;;21.88;;
45356;SDS011;31092;51.924;21.448;2023-09-30T04:49:51;23.70;;;21.83;;
45356;SDS011;31092;51.924;21.448;2023-09-30T04:52:16;22.70;;;20.90;;
45356;SDS011;31092;51.924;21.448;2023-09-30T04:54:42;23.17;;;21.30;;
45356;SDS011;31092;51.924;21.448;2023-09-30T04:57:10;22.70;;;21.05;;
45356;SDS011;31092;51.924;21.448;2023-09-30T04:59:35;22.80;;;21.08;;
45356;SDS011;31092;51.924;21.448;2023-09-30T05:02:01;23.23;;;21.50;;
45356;SDS011;31092;51.924;21.448;2023-09-30T05:04:27;23.80;;;22.10;;
45356;SDS011;31092;51.924;21.448;2023-09-30T05:06:52;22.65;;;20.90;;
45356;SDS011;31092;51.924;21.448;2023-09-30T05:09:18;22.98;;;21.25;;
45356;SDS011;31092;51.924;21.448;2023-09-30T05:11:43;23.05;;;21.38;;
45356;SDS011;31092;51.924;21.448;2023-09-30T05:14:09;25.20;;;23.35;;
45356;SDS011;31092;51.924;21.448;2023-09-30T05:16:35;23.83;;;21.95;;
45356;SDS011;31092;51.924;21.448;2023-09-30T05:19:00;22.25;;;20.65;;
45356;SDS011;31092;51.924;21.448;2023-09-30T05:21:26;25.00;;;22.63;;
45356;SDS011;31092;51.924;21.448;2023-09-30T05:23:52;22.65;;;20.90;;
45356;SDS011;31092;51.924;21.448;2023-09-30T05:26:18;22.90;;;21.10;;
45356;SDS011;31092;51.924;21.448;2023-09-30T05:28:43;23.55;;;21.48;;
45356;SDS011;31092;51.924;21.448;2023-09-30T05:31:09;23.58;;;21.48;;
45356;SDS011;31092;51.924;21.448;2023-09-30T05:33:35;23.95;;;22.00;;
45356;SDS011;31092;51.924;21.448;2023-09-30T05:36:01;22.38;;;20.42;;
45356;SDS011;31092;51.924;21.448;2023-09-30T05:38:28;24.02;;;22.25;;
45356;SDS011;31092;51.924;21.448;2023-09-30T05:40:56;23.00;;;21.38;;
45356;SDS011;31092;51.924;21.448;2023-09-30T05:43:24;24.98;;;22.92;;
45356;SDS011;31092;51.924;21.448;2023-09-30T05:45:50;23.00;;;21.25;;
45356;SDS011;31092;51.924;21.448;2023-09-30T05:48:20;22.97;;;21.27;;
45356;SDS011;31092;51.924;21.448;2023-09-30T05:50:47;22.83;;;20.83;;
45356;SDS011;31092;51.924;21.448;2023-09-30T05:53:13;22.77;;;20.73;;
45356;SDS011;31092;51.924;21.448;2023-09-30T05:55:39;21.52;;;19.98;;
45356;SDS011;31092;51.924;21.448;2023-09-30T05:58:09;23.05;;;21.40;;
45356;SDS011;31092;51.924;21.448;2023-09-30T06:00:35;22.40;;;20.75;;
45356;SDS011;31092;51.924;21.448;2023-09-30T06:03:00;21.88;;;20.33;;
45356;SDS011;31092;51.924;21.448;2023-09-30T06:05:27;23.08;;;21.27;;
45356;SDS011;31092;51.924;21.448;2023-09-30T06:07:55;22.55;;;20.98;;
45356;SDS011;31092;51.924;21.448;2023-09-30T06:10:21;21.80;;;19.85;;
45356;SDS011;31092;51.924;21.448;2023-09-30T06:12:48;22.02;;;20.58;;
45356;SDS011;31092;51.924;21.448;2023-09-30T06:15:20;21.38;;;19.95;;
45356;SDS011;31092;51.924;21.448;2023-09-30T06:17:49;20.90;;;19.33;;
45356;SDS011;31092;51.924;21.448;2023-09-30T06:20:17;21.35;;;19.85;;
45356;SDS011;31092;51.924;21.448;2023-09-30T06:22:45;22.80;;;20.70;;
45356;SDS011;31092;51.924;21.448;2023-09-30T06:25:12;22.67;;;20.50;;
45356;SDS011;31092;51.924;21.448;2023-09-30T06:27:41;23.10;;;21.30;;
45356;SDS011;31092;51.924;21.448;2023-09-30T06:30:10;23.23;;;21.45;;
45356;SDS011;31092;51.924;21.448;2023-09-30T06:32:36;23.17;;;21.00;;
45356;SDS011;31092;51.924;21.448;2023-09-30T06:35:02;22.27;;;20.77;;
45356;SDS011;31092;51.924;21.448;2023-09-30T06:37:29;22.13;;;20.42;;
45356;SDS011;31092;51.924;21.448;2023-09-30T06:39:54;23.00;;;21.20;;
45356;SDS011;31092;51.924;21.448;2023-09-30T06:42:20;23.02;;;20.90;;
45356;SDS011;31092;51.924;21.448;2023-09-30T06:44:46;23.67;;;21.75;;
45356;SDS011;31092;51.924;21.448;2023-09-30T06:47:12;23.58;;;21.38;;
45356;SDS011;31092;51.924;21.448;2023-09-30T06:49:38;22.60;;;20.60;;
45356;SDS011;31092;51.924;21.448;2023-09-30T06:52:04;22.80;;;21.10;;
45356;SDS011;31092;51.924;21.448;2023-09-30T06:54:30;23.02;;;21.20;;
45356;SDS011;31092;51.924;21.448;2023-09-30T06:56:56;26.05;;;23.73;;
45356;SDS011;31092;51.924;21.448;2023-09-30T06:59:22;24.30;;;21.92;;
45356;SDS011;31092;51.924;21.448;2023-09-30T07:01:47;24.70;;;22.42;;
45356;SDS011;31092;51.924;21.448;2023-09-30T07:04:13;23.90;;;21.73;;
45356;SDS011;31092;51.924;21.448;2023-09-30T07:06:38;23.88;;;21.85;;
45356;SDS011;31092;51.924;21.448;2023-09-30T07:09:04;23.02;;;21.02;;
45356;SDS011;31092;51.924;21.448;2023-09-30T07:11:30;24.25;;;22.25;;
45356;SDS011;31092;51.924;21.448;2023-09-30T07:13:59;23.10;;;21.30;;
45356;SDS011;31092;51.924;21.448;2023-09-30T07:16:26;21.75;;;19.73;;
45356;SDS011;31092;51.924;21.448;2023-09-30T07:18:52;21.50;;;19.70;;
45356;SDS011;31092;51.924;21.448;2023-09-30T07:21:17;21.40;;;19.85;;
45356;SDS011;31092;51.924;21.448;2023-09-30T07:23:43;22.15;;;20.33;;
45356;SDS011;31092;51.924;21.448;2023-09-30T07:26:08;24.45;;;22.55;;
45356;SDS011;31092;51.924;21.448;2023-09-30T07:28:34;22.63;;;21.00;;
45356;SDS011;31092;51.924;21.448;2023-09-30T07:31:00;23.35;;;21.52;;
45356;SDS011;31092;51.924;21.448;2023-09-30T07:33:26;25.83;;;23.80;;
45356;SDS011;31092;51.924;21.448;2023-09-30T07:35:52;26.48;;;24.15;;
45356;SDS011;31092;51.924;21.448;2023-09-30T07:38:17;24.63;;;22.65;;
45356;SDS011;31092;51.924;21.448;2023-09-30T07:40:43;28.88;;;26.23;;
45356;SDS011;31092;51.924;21.448;2023-09-30T07:43:10;26.10;;;23.85;;
45356;SDS011;31092;51.924;21.448;2023-09-30T07:45:37;23.50;;;21.48;;
45356;SDS011;31092;51.924;21.448;2023-09-30T07:48:04;23.35;;;21.50;;
45356;SDS011;31092;51.924;21.448;2023-09-30T07:50:30;22.02;;;20.15;;
45356;SDS011;31092;51.924;21.448;2023-09-30T07:52:59;22.55;;;20.95;;
45356;SDS011;31092;51.924;21.448;2023-09-30T07:55:31;22.88;;;21.05;;
45356;SDS011;31092;51.924;21.448;2023-09-30T07:57:57;22.63;;;20.73;;
45356;SDS011;31092;51.924;21.448;2023-09-30T08:00:24;22.35;;;20.50;;
45356;SDS011;31092;51.924;21.448;2023-09-30T08:02:49;26.17;;;23.98;;
45356;SDS011;31092;51.924;21.448;2023-09-30T08:05:15;24.80;;;22.90;;
45356;SDS011;31092;51.924;21.448;2023-09-30T08:07:40;22.65;;;20.65;;
45356;SDS011;31092;51.924;21.448;2023-09-30T08:10:06;23.88;;;22.05;;
45356;SDS011;31092;51.924;21.448;2023-09-30T08:12:41;22.08;;;20.27;;
45356;SDS011;31092;51.924;21.448;2023-09-30T08:15:15;23.35;;;21.55;;
45356;SDS011;31092;51.924;21.448;2023-09-30T08:17:42;23.95;;;21.52;;
45356;SDS011;31092;51.924;21.448;2023-09-30T08:20:08;26.30;;;23.58;;
45356;SDS011;31092;51.924;21.448;2023-09-30T08:22:34;24.10;;;22.08;;
45356;SDS011;31092;51.924;21.448;2023-09-30T08:25:08;23.02;;;21.15;;
45356;SDS011;31092;51.924;21.448;2023-09-30T08:27:36;22.92;;;21.10;;
45356;SDS011;31092;51.924;21.448;2023-09-30T08:30:02;22.20;;;20.45;;
45356;SDS011;31092;51.924;21.448;2023-09-30T08:32:34;23.15;;;21.23;;
45356;SDS011;31092;51.924;21.448;2023-09-30T08:35:01;23.48;;;21.50;;
45356;SDS011;31092;51.924;21.448;2023-09-30T08:37:28;23.50;;;21.60;;
45356;SDS011;31092;51.924;21.448;2023-09-30T08:39:55;22.20;;;20.30;;
45356;SDS011;31092;51.924;21.448;2023-09-30T08:42:21;23.58;;;21.60;;
45356;SDS011;31092;51.924;21.448;2023-09-30T08:44:49;23.75;;;21.52;;
45356;SDS011;31092;51.924;21.448;2023-09-30T08:47:22;23.30;;;21.40;;
45356;SDS011;31092;51.924;21.448;2023-09-30T08:49:54;23.88;;;21.98;;
45356;SDS011;31092;51.924;21.448;2023-09-30T08:52:23;24.75;;;22.63;;
45356;SDS011;31092;51.924;21.448;2023-09-30T08:54:49;23.73;;;21.92;;
45356;SDS011;31092;51.924;21.448;2023-09-30T08:57:21;23.80;;;21.80;;
45356;SDS011;31092;51.924;21.448;2023-09-30T08:59:48;23.90;;;22.00;;
45356;SDS011;31092;51.924;21.448;2023-09-30T09:02:15;24.42;;;22.05;;
45356;SDS011;31092;51.924;21.448;2023-09-30T09:04:42;24.17;;;22.13;;
45356;SDS011;31092;51.924;21.448;2023-09-30T09:07:08;23.38;;;21.77;;
45356;SDS011;31092;51.924;21.448;2023-09-30T09:09:34;23.70;;;21.50;;
45356;SDS011;31092;51.924;21.448;2023-09-30T09:12:00;23.10;;;21.35;;
45356;SDS011;31092;51.924;21.448;2023-09-30T09:14:38;23.25;;;21.55;;
45356;SDS011;31092;51.924;21.448;2023-09-30T09:17:07;23.25;;;21.02;;
45356;SDS011;31092;51.924;21.448;2023-09-30T09:19:37;23.40;;;21.33;;
45356;SDS011;31092;51.924;21.448;2023-09-30T09:22:03;22.92;;;21.02;;
45356;SDS011;31092;51.924;21.448;2023-09-30T09:24:33;22.85;;;21.20;;
45356;SDS011;31092;51.924;21.448;2023-09-30T09:27:12;21.58;;;19.80;;
45356;SDS011;31092;51.924;21.448;2023-09-30T09:29:41;21.83;;;20.33;;
45356;SDS011;31092;51.924;21.448;2023-09-30T09:32:14;22.52;;;20.83;;
45356;SDS011;31092;51.924;21.448;2023-09-30T09:34:41;23.30;;;21.55;;
45356;SDS011;31092;51.924;21.448;2023-09-30T09:37:15;23.67;;;21.83;;
45356;SDS011;31092;51.924;21.448;2023-09-30T09:39:54;24.63;;;22.65;;
45356;SDS011;31092;51.924;21.448;2023-09-30T09:42:28;22.05;;;20.23;;
45356;SDS011;31092;51.924;21.448;2023-09-30T09:44:59;23.10;;;21.27;;
45356;SDS011;31092;51.924;21.448;2023-09-30T09:47:27;23.90;;;21.77;;
45356;SDS011;31092;51.924;21.448;2023-09-30T09:49:54;24.40;;;22.40;;
45356;SDS011;31092;51.924;21.448;2023-09-30T09:52:22;22.65;;;20.88;;
45356;SDS011;31092;51.924;21.448;2023-09-30T09:54:48;22.58;;;20.98;;
45356;SDS011;31092;51.924;21.448;2023-09-30T09:57:16;24.52;;;22.15;;
45356;SDS011;31092;51.924;21.448;2023-09-30T09:59:44;23.52;;;21.63;;
45356;SDS011;31092;51.924;21.448;2023-09-30T10:02:13;24.05;;;22.05;;
45356;SDS011;31092;51.924;21.448;2023-09-30T10:04:48;22.90;;;20.95;;
45356;SDS011;31092;51.924;21.448;2023-09-30T10:07:21;25.33;;;23.15;;
45356;SDS011;31092;51.924;21.448;2023-09-30T10:09:51;24.25;;;22.23;;
45356;SDS011;31092;51.924;21.448;2023-09-30T10:12:18;22.30;;;20.65;;
45356;SDS011;31092;51.924;21.448;2023-09-30T10:14:46;24.48;;;22.40;;
45356;SDS011;31092;51.924;21.448;2023-09-30T10:17:12;23.95;;;22.00;;
45356;SDS011;31092;51.924;21.448;2023-09-30T10:20:02;24.05;;;22.15;;
45356;SDS011;31092;51.924;21.448;2023-09-30T10:22:33;22.95;;;20.92;;
45356;SDS011;31092;51.924;21.448;2023-09-30T10:24:59;24.60;;;22.67;;
45356;SDS011;31092;51.924;21.448;2023-09-30T10:29:54;24.35;;;22.45;;
45356;SDS011;31092;51.924;21.448;2023-09-30T10:37:52;24.60;;;22.35;;
45356;SDS011;31092;51.924;21.448;2023-09-30T10:40:47;25.70;;;23.60;;
45356;SDS011;31092;51.924;21.448;2023-09-30T10:43:32;24.85;;;22.67;;
45356;SDS011;31092;51.924;21.448;2023-09-30T10:46:00;25.52;;;23.25;;
45356;SDS011;31092;51.924;21.448;2023-09-30T10:51:11;26.00;;;23.60;;
45356;SDS011;31092;51.924;21.448;2023-09-30T10:53:43;23.83;;;21.95;;
45356;SDS011;31092;51.924;21.448;2023-09-30T10:56:11;23.88;;;21.80;;
45356;SDS011;31092;51.924;21.448;2023-09-30T10:58:41;26.58;;;24.17;;
45356;SDS011;31092;51.924;21.448;2023-09-30T11:04:14;23.88;;;21.67;;
45356;SDS011;31092;51.924;21.448;2023-09-30T11:06:41;24.58;;;22.48;;
45356;SDS011;31092;51.924;21.448;2023-09-30T11:09:07;23.75;;;21.85;;
45356;SDS011;31092;51.924;21.448;2023-09-30T11:11:42;23.55;;;21.38;;
45356;SDS011;31092;51.924;21.448;2023-09-30T11:14:20;23.73;;;21.45;;
45356;SDS011;31092;51.924;21.448;2023-09-30T11:16:52;22.33;;;20.35;;
45356;SDS011;31092;51.924;21.448;2023-09-30T11:19:19;22.38;;;20.35;;
45356;SDS011;31092;51.924;21.448;2023-09-30T11:21:50;21.58;;;19.67;;
45356;SDS011;31092;51.924;21.448;2023-09-30T11:24:17;22.00;;;20.08;;
45356;SDS011;31092;51.924;21.448;2023-09-30T11:27:03;22.00;;;20.20;;
45356;SDS011;31092;51.924;21.448;2023-09-30T11:29:29;20.40;;;18.80;;
45356;SDS011;31092;51.924;21.448;2023-09-30T11:31:55;18.08;;;16.88;;
45356;SDS011;31092;51.924;21.448;2023-09-30T11:34:30;17.15;;;16.05;;
45356;SDS011;31092;51.924;21.448;2023-09-30T11:37:01;16.27;;;15.05;;
45356;SDS011;31092;51.924;21.448;2023-09-30T11:39:27;16.90;;;15.90;;
45356;SDS011;31092;51.924;21.448;2023-09-30T11:41:54;16.90;;;15.75;;
45356;SDS011;31092;51.924;21.448;2023-09-30T11:44:22;16.45;;;15.32;;
45356;SDS011;31092;51.924;21.448;2023-09-30T11:49:27;16.88;;;15.80;;
45356;SDS011;31092;51.924;21.448;2023-09-30T11:51:57;15.55;;;14.65;;
45356;SDS011;31092;51.924;21.448;2023-09-30T11:54:34;14.95;;;13.98;;
45356;SDS011;31092;51.924;21.448;2023-09-30T11:57:07;13.88;;;13.13;;
45356;SDS011;31092;51.924;21.448;2023-09-30T11:59:36;14.47;;;13.67;;
45356;SDS011;31092;51.924;21.448;2023-09-30T12:02:03;14.00;;;13.30;;
45356;SDS011;31092;51.924;21.448;2023-09-30T12:04:30;13.60;;;12.77;;
45356;SDS011;31092;51.924;21.448;2023-09-30T12:06:56;13.95;;;13.25;;
45356;SDS011;31092;51.924;21.448;2023-09-30T12:09:23;13.75;;;13.00;;
45356;SDS011;31092;51.924;21.448;2023-09-30T12:11:51;14.68;;;13.80;;
45356;SDS011;31092;51.924;21.448;2023-09-30T12:14:17;13.38;;;12.77;;
45356;SDS011;31092;51.924;21.448;2023-09-30T12:16:43;14.82;;;14.05;;
45356;SDS011;31092;51.924;21.448;2023-09-30T12:19:18;12.57;;;11.98;;
45356;SDS011;31092;51.924;21.448;2023-09-30T12:21:44;12.40;;;11.90;;
45356;SDS011;31092;51.924;21.448;2023-09-30T12:24:16;12.77;;;12.18;;
45356;SDS011;31092;51.924;21.448;2023-09-30T12:26:45;12.55;;;12.02;;
45356;SDS011;31092;51.924;21.448;2023-09-30T12:29:17;15.43;;;14.43;;
45356;SDS011;31092;51.924;21.448;2023-09-30T12:31:47;13.88;;;13.18;;
45356;SDS011;31092;51.924;21.448;2023-09-30T12:34:13;13.75;;;12.98;;
45356;SDS011;31092;51.924;21.448;2023-09-30T12:36:48;13.32;;;12.63;;
45356;SDS011;31092;51.924;21.448;2023-09-30T12:39:14;14.32;;;13.52;;
45356;SDS011;31092;51.924;21.448;2023-09-30T12:41:42;13.73;;;12.95;;
45356;SDS011;31092;51.924;21.448;2023-09-30T12:44:08;13.45;;;12.65;;
45356;SDS011;31092;51.924;21.448;2023-09-30T12:46:35;13.60;;;12.90;;
45356;SDS011;31092;51.924;21.448;2023-09-30T12:49:04;13.90;;;13.10;;
45356;SDS011;31092;51.924;21.448;2023-09-30T12:51:32;13.45;;;12.85;;
45356;SDS011;31092;51.924;21.448;2023-09-30T12:53:58;12.63;;;12.02;;
45356;SDS011;31092;51.924;21.448;2023-09-30T12:56:24;14.52;;;13.52;;
45356;SDS011;31092;51.924;21.448;2023-09-30T12:58:50;14.82;;;13.93;;
45356;SDS011;31092;51.924;21.448;2023-09-30T13:01:16;13.82;;;13.07;;
45356;SDS011;31092;51.924;21.448;2023-09-30T13:03:44;14.63;;;13.35;;
45356;SDS011;31092;51.924;21.448;2023-09-30T13:06:10;13.98;;;13.18;;
45356;SDS011;31092;51.924;21.448;2023-09-30T13:08:36;14.32;;;13.50;;
45356;SDS011;31092;51.924;21.448;2023-09-30T13:11:01;14.27;;;13.48;;
45356;SDS011;31092;51.924;21.448;2023-09-30T13:13:29;14.70;;;13.50;;
45356;SDS011;31092;51.924;21.448;2023-09-30T13:15:56;14.25;;;13.40;;
45356;SDS011;31092;51.924;21.448;2023-09-30T13:18:23;14.18;;;13.38;;
45356;SDS011;31092;51.924;21.448;2023-09-30T13:20:48;14.50;;;13.55;;
45356;SDS011;31092;51.924;21.448;2023-09-30T13:23:14;14.13;;;13.32;;
45356;SDS011;31092;51.924;21.448;2023-09-30T13:25:49;15.30;;;14.07;;
45356;SDS011;31092;51.924;21.448;2023-09-30T13:28:18;14.77;;;13.88;;
45356;SDS011;31092;51.924;21.448;2023-09-30T13:30:43;14.60;;;13.65;;
45356;SDS011;31092;51.924;21.448;2023-09-30T13:33:10;15.10;;;14.20;;
45356;SDS011;31092;51.924;21.448;2023-09-30T13:35:39;15.25;;;14.25;;
45356;SDS011;31092;51.924;21.448;2023-09-30T13:38:04;15.85;;;14.75;;
45356;SDS011;31092;51.924;21.448;2023-09-30T13:40:30;16.20;;;15.02;;
45356;SDS011;31092;51.924;21.448;2023-09-30T13:43:05;15.73;;;14.52;;
45356;SDS011;31092;51.924;21.448;2023-09-30T13:45:30;16.40;;;15.48;;
45356;SDS011;31092;51.924;21.448;2023-09-30T13:47:56;16.65;;;15.65;;
45356;SDS011;31092;51.924;21.448;2023-09-30T13:50:22;15.73;;;14.93;;
45356;SDS011;31092;51.924;21.448;2023-09-30T13:52:47;16.08;;;15.07;;
45356;SDS011;31092;51.924;21.448;2023-09-30T13:55:13;16.27;;;15.32;;
45356;SDS011;31092;51.924;21.448;2023-09-30T14:00:16;16.20;;;15.27;;
45356;SDS011;31092;51.924;21.448;2023-09-30T14:02:42;15.85;;;14.85;;
45356;SDS011;31092;51.924;21.448;2023-09-30T14:05:08;16.80;;;15.57;;
45356;SDS011;31092;51.924;21.448;2023-09-30T14:07:35;16.00;;;14.93;;
45356;SDS011;31092;51.924;21.448;2023-09-30T14:10:02;16.70;;;15.60;;
45356;SDS011;31092;51.924;21.448;2023-09-30T14:12:30;17.58;;;16.23;;
45356;SDS011;31092;51.924;21.448;2023-09-30T14:14:56;16.45;;;15.23;;
45356;SDS011;31092;51.924;21.448;2023-09-30T14:17:22;18.45;;;17.27;;
45356;SDS011;31092;51.924;21.448;2023-09-30T14:19:48;16.60;;;15.57;;
45356;SDS011;31092;51.924;21.448;2023-09-30T14:22:15;17.00;;;15.90;;
45356;SDS011;31092;51.924;21.448;2023-09-30T14:24:42;17.35;;;16.05;;
45356;SDS011;31092;51.924;21.448;2023-09-30T14:27:07;16.60;;;15.70;;
45356;SDS011;31092;51.924;21.448;2023-09-30T14:29:34;17.92;;;16.58;;
45356;SDS011;31092;51.924;21.448;2023-09-30T14:32:00;17.42;;;16.23;;